METAR Data
IDs: Format: Raw Decoded Include TAF

Data at: 0230 UTC 20 Jan 2022

EFHK 200220Z 19012KT 9999 -RA BKN004 BKN006 01/01 Q0983 BECMG 4000